Mount Dora, New Mexico
Current Conditions -  °F | °C
As of 1:55 AM on Monday 20 Oct 2014 (Local Time) from KCAO Reporting Station
Clear Clear  
Wind Chill: 53°   Ceiling: Unl
Heat Index: 53°   Visibility: 10mi
Dew Point: 43°   Wind: 9mph
Humidity: 69%   Direction: 350°N
Pressure: 30.13"   Gusts: NA
Location:  36.51°N, 103.49°W
Report Text: KCAO 200755Z AUTO 35008KT 10SM CLR 12/06 A3013 RMK AO2 SLP150 T01170061
Loading
Personal Weather Stations






























Interactive Weather Map
Tropical Storm Tracking
New forecast layout! Learn more

10-Day Weather Forecast

Advertisements
Track Severe Weather on mobile